createdAt,value
2023-03-07T00:00:46.241Z,1.10
2023-03-07T00:03:17.433Z,1.10
2023-03-07T00:05:44.650Z,1.10
2023-03-07T00:08:12.230Z,1.10
2023-03-07T00:10:39.177Z,1.10
2023-03-07T00:13:06.012Z,1.10
2023-03-07T00:15:32.746Z,1.20
2023-03-07T00:17:59.506Z,1.20
2023-03-07T00:20:26.270Z,1.20
2023-03-07T00:22:53.207Z,1.10
2023-03-07T00:25:19.927Z,1.10
2023-03-07T00:27:46.690Z,1.10
2023-03-07T00:30:13.666Z,1.10
2023-03-07T00:32:40.576Z,1.10
2023-03-07T00:35:07.717Z,1.10
2023-03-07T00:37:34.480Z,1.10
2023-03-07T00:40:01.258Z,1.20
2023-03-07T00:42:27.991Z,1.10
2023-03-07T00:44:54.763Z,1.10
2023-03-07T00:47:22.187Z,1.10
2023-03-07T00:49:48.991Z,1.20
2023-03-07T00:52:15.871Z,1.10
2023-03-07T00:54:42.605Z,1.00
2023-03-07T00:57:09.299Z,1.00
2023-03-07T00:59:36.140Z,1.00
2023-03-07T01:02:02.878Z,1.00
2023-03-07T01:04:29.714Z,0.90
2023-03-07T01:06:56.455Z,0.90
2023-03-07T01:09:23.789Z,0.90
2023-03-07T01:11:50.602Z,0.90
2023-03-07T01:14:17.419Z,0.90
2023-03-07T01:16:44.510Z,0.90
2023-03-07T01:19:14.456Z,0.80
2023-03-07T01:21:43.553Z,0.90
2023-03-07T01:24:13.866Z,0.80
2023-03-07T01:26:40.686Z,0.80
2023-03-07T01:29:08.375Z,0.80
2023-03-07T01:31:35.336Z,0.80
2023-03-07T01:34:02.784Z,0.90
2023-03-07T01:36:33.104Z,0.80
2023-03-07T01:39:07.680Z,0.90
2023-03-07T01:41:36.957Z,1.00
2023-03-07T01:44:08.085Z,0.90
2023-03-07T01:47:07.501Z,0.90
2023-03-07T01:49:41.043Z,0.80
2023-03-07T01:52:10.863Z,0.90
2023-03-07T01:54:42.193Z,1.00
2023-03-07T01:57:09.727Z,1.00
2023-03-07T01:59:44.689Z,0.90
2023-03-07T02:02:17.039Z,0.90
2023-03-07T02:04:51.107Z,0.90
2023-03-07T02:07:22.001Z,0.90
2023-03-07T02:09:50.643Z,1.00
2023-03-07T02:12:17.663Z,1.10
2023-03-07T02:14:45.969Z,1.10
2023-03-07T02:17:13.159Z,1.20
2023-03-07T02:20:00.912Z,1.10
2023-03-07T02:22:27.873Z,1.10
2023-03-07T02:25:22.046Z,1.20
2023-03-07T02:27:51.482Z,1.10
2023-03-07T02:30:19.180Z,1.20
2023-03-07T02:32:45.958Z,1.10
2023-03-07T02:35:15.719Z,1.20
2023-03-07T02:37:46.120Z,1.30
2023-03-07T02:40:16.596Z,1.20
2023-03-07T02:42:44.269Z,1.10
2023-03-07T02:45:15.174Z,1.20
2023-03-07T02:47:43.664Z,1.30
2023-03-07T02:50:11.518Z,1.30
2023-03-07T02:52:38.754Z,1.30
2023-03-07T02:55:07.714Z,1.20
2023-03-07T02:57:34.758Z,1.30
2023-03-07T03:00:04.044Z,1.30
2023-03-07T03:02:30.834Z,1.30
2023-03-07T03:04:57.603Z,1.30
2023-03-07T03:07:24.458Z,1.40
2023-03-07T03:09:51.352Z,1.30
2023-03-07T03:12:18.251Z,1.30
2023-03-07T03:14:45.119Z,1.30
2023-03-07T03:17:11.914Z,1.30
2023-03-07T03:19:38.629Z,1.30
2023-03-07T03:22:05.550Z,1.30
2023-03-07T03:24:32.378Z,1.30
2023-03-07T03:26:59.315Z,1.40
2023-03-07T03:29:26.289Z,1.40
2023-03-07T03:31:52.982Z,1.30
2023-03-07T03:34:20.145Z,1.30
2023-03-07T03:36:46.969Z,1.30
2023-03-07T03:39:14.776Z,1.30
2023-03-07T03:41:41.741Z,1.30
2023-03-07T03:44:08.768Z,1.40
2023-03-07T03:46:36.443Z,1.40
2023-03-07T03:49:04.121Z,1.40
2023-03-07T03:51:31.510Z,1.50
2023-03-07T03:53:58.721Z,1.50
2023-03-07T03:56:27.074Z,1.50
2023-03-07T03:58:55.578Z,1.40
2023-03-07T04:01:25.582Z,1.50
2023-03-07T04:03:54.110Z,1.50
2023-03-07T04:06:29.403Z,1.50
2023-03-07T04:08:57.178Z,1.50
2023-03-07T04:11:25.402Z,1.50
2023-03-07T04:13:52.489Z,1.60
2023-03-07T04:16:20.301Z,1.50
2023-03-07T04:18:47.106Z,1.50
2023-03-07T04:21:14.076Z,1.50
2023-03-07T04:23:41.024Z,1.60
2023-03-07T04:26:10.431Z,1.60
2023-03-07T04:28:46.088Z,1.60
2023-03-07T04:31:16.338Z,1.60
2023-03-07T04:33:43.475Z,1.70
2023-03-07T04:36:11.475Z,1.70
2023-03-07T04:38:39.221Z,1.60
2023-03-07T04:41:07.454Z,1.70
2023-03-07T04:43:34.723Z,1.70
2023-03-07T04:46:01.908Z,1.70
2023-03-07T04:48:28.843Z,1.80
2023-03-07T04:50:55.968Z,1.90
2023-03-07T04:53:22.860Z,1.90
2023-03-07T04:55:49.835Z,1.90
2023-03-07T04:58:16.945Z,1.90
2023-03-07T05:00:45.522Z,1.80
2023-03-07T05:03:14.104Z,1.90
2023-03-07T05:05:41.459Z,2.00
2023-03-07T05:08:08.280Z,2.00
2023-03-07T05:10:36.085Z,2.10
2023-03-07T05:13:03.895Z,2.10
2023-03-07T05:15:30.769Z,2.10
2023-03-07T05:17:57.612Z,2.20
2023-03-07T05:20:24.391Z,2.10
2023-03-07T05:22:51.174Z,2.20
2023-03-07T05:25:18.131Z,2.20
2023-03-07T05:27:44.949Z,2.30
2023-03-07T05:30:12.733Z,2.30
2023-03-07T05:32:39.506Z,2.40
2023-03-07T05:35:08.796Z,2.40
2023-03-07T05:37:35.608Z,2.40
2023-03-07T05:40:02.680Z,2.40
2023-03-07T05:42:29.441Z,2.40
2023-03-07T05:44:56.186Z,2.40
2023-03-07T05:47:23.039Z,2.50
2023-03-07T05:49:49.802Z,2.40
2023-03-07T05:52:16.621Z,2.50
2023-03-07T05:54:43.386Z,2.30
2023-03-07T05:57:10.131Z,2.30
2023-03-07T05:59:36.942Z,2.20
2023-03-07T06:02:03.762Z,2.20
2023-03-07T06:04:30.589Z,2.10
2023-03-07T06:06:57.706Z,2.00
2023-03-07T06:09:25.843Z,2.00
2023-03-07T06:11:52.697Z,1.90
2023-03-07T06:14:19.528Z,1.80
2023-03-07T06:16:46.494Z,1.80
2023-03-07T06:19:13.555Z,1.80
2023-03-07T06:21:40.381Z,1.80
2023-03-07T06:24:07.762Z,1.80
2023-03-07T06:26:35.010Z,1.80
2023-03-07T06:29:02.122Z,1.80
2023-03-07T06:31:29.229Z,1.70
2023-03-07T06:33:57.555Z,1.80
2023-03-07T06:36:24.606Z,1.80
2023-03-07T06:38:51.329Z,1.80
2023-03-07T06:41:18.363Z,1.80
2023-03-07T06:43:45.146Z,1.90
2023-03-07T06:46:12.017Z,1.90
2023-03-07T06:48:38.791Z,1.90
2023-03-07T06:51:12.884Z,1.90
2023-03-07T06:53:41.145Z,1.90
2023-03-07T06:56:07.938Z,1.80
2023-03-07T06:58:34.845Z,1.90
2023-03-07T07:01:01.649Z,1.90
2023-03-07T07:03:28.510Z,1.90
2023-03-07T07:05:55.455Z,1.90
2023-03-07T07:08:22.237Z,1.90
2023-03-07T07:10:49.059Z,2.00
2023-03-07T07:13:15.872Z,2.00
2023-03-07T07:15:42.578Z,2.10
2023-03-07T07:18:14.306Z,2.00
2023-03-07T07:20:41.231Z,2.10
2023-03-07T07:23:08.029Z,2.20
2023-03-07T07:25:34.927Z,2.20
2023-03-07T07:28:01.782Z,2.20
2023-03-07T07:30:28.715Z,2.20
2023-03-07T07:32:55.702Z,2.20
2023-03-07T07:35:22.517Z,2.20
2023-03-07T07:37:49.312Z,2.20
2023-03-07T07:40:16.305Z,2.20
2023-03-07T07:42:43.473Z,2.30
2023-03-07T07:45:11.213Z,2.40
2023-03-07T07:47:38.169Z,2.60
2023-03-07T07:50:05.734Z,2.50
2023-03-07T07:52:32.583Z,2.60
2023-03-07T07:54:59.444Z,2.60
2023-03-07T07:57:28.772Z,2.60
2023-03-07T07:59:55.498Z,2.70
2023-03-07T08:02:22.380Z,2.80
2023-03-07T08:04:49.538Z,2.80
2023-03-07T08:07:16.477Z,2.90
2023-03-07T08:09:43.414Z,2.90
2023-03-07T08:12:12.643Z,2.90
2023-03-07T08:14:41.852Z,3.00
2023-03-07T08:17:08.841Z,3.10
2023-03-07T08:19:35.663Z,3.30
2023-03-07T08:22:02.580Z,3.50
2023-03-07T08:24:40.648Z,3.70
2023-03-07T08:27:08.270Z,3.80
2023-03-07T08:29:35.349Z,3.80
2023-03-07T08:32:02.336Z,3.80
2023-03-07T08:34:29.447Z,3.80
2023-03-07T08:36:56.272Z,4.00
2023-03-07T08:39:22.986Z,4.20
2023-03-07T08:41:49.765Z,4.20
2023-03-07T08:44:16.520Z,4.10
2023-03-07T08:46:43.335Z,3.90
2023-03-07T08:49:10.151Z,3.80
2023-03-07T08:51:37.005Z,3.80
2023-03-07T08:54:03.882Z,3.80
2023-03-07T08:56:30.738Z,3.80
2023-03-07T08:58:57.472Z,3.80
2023-03-07T09:01:24.303Z,3.70
2023-03-07T09:03:51.076Z,3.60
2023-03-07T09:06:20.351Z,3.50
2023-03-07T09:08:47.858Z,3.50
2023-03-07T09:11:15.535Z,3.70
2023-03-07T09:13:51.416Z,3.80
2023-03-07T09:16:19.850Z,4.20
2023-03-07T09:18:46.795Z,4.60
2023-03-07T09:21:13.567Z,4.90
2023-03-07T09:23:40.415Z,5.30
2023-03-07T09:26:07.215Z,5.50
2023-03-07T09:28:33.973Z,5.50
2023-03-07T09:31:06.205Z,5.50
2023-03-07T09:33:33.035Z,5.70
2023-03-07T09:35:59.843Z,5.90
2023-03-07T09:38:27.002Z,5.80
2023-03-07T09:41:04.114Z,5.70
2023-03-07T09:43:47.216Z,5.40
2023-03-07T09:46:16.738Z,5.20
2023-03-07T09:49:14.700Z,5.00
2023-03-07T09:51:50.212Z,4.80
2023-03-07T09:54:22.905Z,4.40
2023-03-07T09:57:00.032Z,4.30
2023-03-07T09:59:41.724Z,4.30
2023-03-07T10:02:30.386Z,4.60
2023-03-07T10:05:25.981Z,4.90
2023-03-07T10:07:54.563Z,5.60
2023-03-07T10:10:26.131Z,5.90
2023-03-07T10:13:17.544Z,6.10
2023-03-07T10:16:01.286Z,6.40
2023-03-07T10:18:40.443Z,6.40
2023-03-07T10:21:16.644Z,6.20
2023-03-07T10:23:58.896Z,5.90
2023-03-07T10:26:30.262Z,5.70
2023-03-07T10:28:59.657Z,5.60
2023-03-07T10:31:34.821Z,5.80
2023-03-07T10:34:22.554Z,6.20
2023-03-07T10:37:08.340Z,6.70
2023-03-07T10:39:51.990Z,6.90
2023-03-07T10:42:21.772Z,7.30
2023-03-07T10:44:50.005Z,7.60
2023-03-07T10:47:27.230Z,7.70
2023-03-07T10:50:09.345Z,7.60
2023-03-07T10:52:41.304Z,7.40
2023-03-07T10:55:33.021Z,7.40
2023-03-07T10:58:23.293Z,7.30
2023-03-07T11:01:06.842Z,7.40
2023-03-07T11:03:49.634Z,7.20
2023-03-07T11:06:32.403Z,7.10
2023-03-07T11:09:17.220Z,7.10
2023-03-07T11:11:56.793Z,7.00
2023-03-07T11:14:24.987Z,7.00
2023-03-07T11:17:00.912Z,6.90
2023-03-07T11:19:36.805Z,6.70
2023-03-07T11:22:30.163Z,6.80
2023-03-07T11:25:01.749Z,6.80
2023-03-07T11:27:34.106Z,6.80
2023-03-07T11:30:22.200Z,6.80
2023-03-07T11:33:10.274Z,6.70
2023-03-07T11:36:04.830Z,7.10
2023-03-07T11:38:52.958Z,7.50
2023-03-07T11:41:32.407Z,7.70
2023-03-07T11:44:33.540Z,7.50
2023-03-07T11:47:21.866Z,7.30
2023-03-07T11:50:22.871Z,7.00
2023-03-07T11:53:04.331Z,7.10
2023-03-07T11:55:38.234Z,7.40
2023-03-07T11:58:27.150Z,7.60
2023-03-07T12:01:28.238Z,7.70
2023-03-07T12:04:29.823Z,7.60
2023-03-07T12:07:14.589Z,7.60
2023-03-07T12:09:48.854Z,7.50
2023-03-07T12:12:47.290Z,7.20
2023-03-07T12:15:44.677Z,7.40
2023-03-07T12:18:26.754Z,7.50
2023-03-07T12:21:15.200Z,7.70
2023-03-07T12:23:53.614Z,7.50
2023-03-07T12:26:36.432Z,7.30
2023-03-07T12:29:21.127Z,7.10
2023-03-07T12:31:52.765Z,7.00
2023-03-07T12:34:33.683Z,6.90
2023-03-07T12:37:31.955Z,6.80
2023-03-07T12:40:02.067Z,6.60
2023-03-07T12:42:45.975Z,6.50
2023-03-07T12:45:27.630Z,6.50
2023-03-07T12:47:55.041Z,6.60
2023-03-07T12:50:57.462Z,6.60
2023-03-07T12:53:47.856Z,6.80
2023-03-07T12:56:24.908Z,6.80
2023-03-07T12:59:02.532Z,6.70
2023-03-07T13:01:37.987Z,6.70
2023-03-07T13:04:23.084Z,6.50
2023-03-07T13:06:50.514Z,6.50
2023-03-07T13:09:23.077Z,6.40
2023-03-07T13:12:24.261Z,6.40
2023-03-07T13:14:53.413Z,6.40
2023-03-07T13:17:34.905Z,6.40
2023-03-07T13:20:24.684Z,6.60
2023-03-07T13:22:51.617Z,6.50
2023-03-07T13:25:27.836Z,6.40
2023-03-07T13:28:02.811Z,6.50
2023-03-07T13:30:31.328Z,6.40
2023-03-07T13:33:24.813Z,6.50
2023-03-07T13:35:56.083Z,6.50
2023-03-07T13:38:42.387Z,6.70
2023-03-07T13:41:11.276Z,6.70
2023-03-07T13:43:47.295Z,6.70
2023-03-07T13:46:32.704Z,6.70
2023-03-07T13:49:01.964Z,6.70
2023-03-07T13:51:29.983Z,6.80
2023-03-07T13:54:17.269Z,6.70
2023-03-07T13:56:44.269Z,6.70
2023-03-07T13:59:13.767Z,6.70
2023-03-07T14:01:50.587Z,6.60
2023-03-07T14:04:43.082Z,6.60
2023-03-07T14:07:22.468Z,6.60
2023-03-07T14:10:21.362Z,6.50
2023-03-07T14:13:13.353Z,6.50
2023-03-07T14:16:11.500Z,6.50
2023-03-07T14:18:47.726Z,6.50
2023-03-07T14:21:32.826Z,6.40
2023-03-07T14:24:05.655Z,6.40
2023-03-07T14:26:34.140Z,6.20
2023-03-07T14:29:13.020Z,6.20
2023-03-07T14:31:42.632Z,6.20
2023-03-07T14:34:21.620Z,6.20
2023-03-07T14:37:12.041Z,6.40
2023-03-07T14:40:00.109Z,6.30
2023-03-07T14:43:02.825Z,6.30
2023-03-07T14:45:38.284Z,6.40
2023-03-07T14:48:38.537Z,6.30
2023-03-07T14:51:31.322Z,6.20
2023-03-07T14:54:05.043Z,6.00
2023-03-07T14:56:32.476Z,6.00
2023-03-07T14:59:02.189Z,6.00
2023-03-07T15:01:35.578Z,6.00
2023-03-07T15:04:03.708Z,6.00
2023-03-07T15:06:31.031Z,6.00
2023-03-07T15:08:59.176Z,5.80
2023-03-07T15:11:35.512Z,5.80
2023-03-07T15:14:02.313Z,5.70
2023-03-07T15:16:54.472Z,5.60
2023-03-07T15:19:48.180Z,5.60
2023-03-07T15:22:32.706Z,5.50
2023-03-07T15:24:59.676Z,5.50
2023-03-07T15:27:30.564Z,5.40
2023-03-07T15:29:58.979Z,5.40
2023-03-07T15:32:38.413Z,5.30
2023-03-07T15:35:08.168Z,5.20
2023-03-07T15:37:52.802Z,5.30
2023-03-07T15:40:28.548Z,5.20
2023-03-07T15:43:02.235Z,5.10
2023-03-07T15:45:35.532Z,5.10
2023-03-07T15:48:23.899Z,5.10
2023-03-07T15:50:56.456Z,5.00
2023-03-07T15:53:32.536Z,5.00
2023-03-07T15:56:00.861Z,4.90
2023-03-07T15:58:28.619Z,4.90
2023-03-07T16:01:20.261Z,4.90
2023-03-07T16:03:58.320Z,4.90
2023-03-07T16:06:39.969Z,4.80
2023-03-07T16:09:17.582Z,4.80
2023-03-07T16:11:45.949Z,4.70
2023-03-07T16:14:26.311Z,4.60
2023-03-07T16:17:09.536Z,4.60
2023-03-07T16:19:36.281Z,4.50
2023-03-07T16:22:03.158Z,4.50
2023-03-07T16:24:29.924Z,4.40
2023-03-07T16:26:57.919Z,4.40
2023-03-07T16:29:24.851Z,4.30
2023-03-07T16:31:51.689Z,4.20
2023-03-07T16:34:21.458Z,4.20
2023-03-07T16:36:48.453Z,4.20
2023-03-07T16:39:15.872Z,4.10
2023-03-07T16:41:46.655Z,4.10
2023-03-07T16:44:19.555Z,4.10
2023-03-07T16:47:09.553Z,4.10
2023-03-07T16:49:36.336Z,4.10
2023-03-07T16:52:06.380Z,4.00
2023-03-07T16:54:33.971Z,4.00
2023-03-07T16:57:02.540Z,4.00
2023-03-07T16:59:35.492Z,4.00
2023-03-07T17:02:04.597Z,4.00
2023-03-07T17:04:31.472Z,4.00
2023-03-07T17:07:04.815Z,3.90
2023-03-07T17:09:31.985Z,4.00
2023-03-07T17:11:59.301Z,3.90
2023-03-07T17:14:26.075Z,3.90
2023-03-07T17:16:52.939Z,3.90
2023-03-07T17:19:26.672Z,3.90
2023-03-07T17:21:54.202Z,3.90
2023-03-07T17:24:21.062Z,3.90
2023-03-07T17:26:49.077Z,4.00
2023-03-07T17:29:45.320Z,4.00
2023-03-07T17:32:12.264Z,4.10
2023-03-07T17:34:39.754Z,4.10
2023-03-07T17:37:06.996Z,4.10
2023-03-07T17:39:34.883Z,4.20
2023-03-07T17:42:02.506Z,4.30
2023-03-07T17:44:30.346Z,4.30
2023-03-07T17:46:57.759Z,4.20
2023-03-07T17:49:26.613Z,4.10
2023-03-07T17:51:53.556Z,4.30
2023-03-07T17:54:20.454Z,4.30
2023-03-07T17:56:47.190Z,4.40
2023-03-07T17:59:14.018Z,4.40
2023-03-07T18:01:40.900Z,4.40
2023-03-07T18:04:08.281Z,4.40
2023-03-07T18:06:36.678Z,4.30
2023-03-07T18:09:06.398Z,4.40
2023-03-07T18:11:36.545Z,4.50
2023-03-07T18:14:03.733Z,4.50
2023-03-07T18:16:30.658Z,4.50
2023-03-07T18:18:59.939Z,4.50
2023-03-07T18:21:29.783Z,4.50
2023-03-07T18:23:57.345Z,4.60
2023-03-07T18:26:24.312Z,4.50
2023-03-07T18:28:53.289Z,4.50
2023-03-07T18:31:25.185Z,4.50
2023-03-07T18:33:54.623Z,4.40
2023-03-07T18:36:24.177Z,4.40
2023-03-07T18:38:51.396Z,4.30
2023-03-07T18:41:21.884Z,4.20
2023-03-07T18:43:48.712Z,4.50
2023-03-07T18:46:17.984Z,4.50
2023-03-07T18:48:49.577Z,4.50
2023-03-07T18:51:19.014Z,4.30
2023-03-07T18:53:46.072Z,4.50
2023-03-07T18:56:15.325Z,4.40
2023-03-07T18:58:42.927Z,4.50
2023-03-07T19:01:39.647Z,4.50
2023-03-07T19:04:07.585Z,4.40
2023-03-07T19:06:48.216Z,4.40
2023-03-07T19:09:18.150Z,4.40
2023-03-07T19:11:45.334Z,4.50
2023-03-07T19:14:12.894Z,4.60
2023-03-07T19:16:40.379Z,4.50
2023-03-07T19:19:07.180Z,4.50
2023-03-07T19:21:33.954Z,4.50
2023-03-07T19:24:01.729Z,4.30
2023-03-07T19:26:28.590Z,4.20
2023-03-07T19:28:56.637Z,4.20
2023-03-07T19:31:32.017Z,4.10
2023-03-07T19:34:01.660Z,4.10
2023-03-07T19:36:31.775Z,4.10
2023-03-07T19:39:02.312Z,4.20
2023-03-07T19:41:31.474Z,4.20
2023-03-07T19:43:59.767Z,4.10
2023-03-07T19:46:26.996Z,4.00
2023-03-07T19:48:54.168Z,3.90
2023-03-07T19:51:23.861Z,3.90
2023-03-07T19:53:51.160Z,3.90
2023-03-07T19:56:24.097Z,3.80
2023-03-07T19:58:51.237Z,3.90
2023-03-07T20:01:19.931Z,4.00
2023-03-07T20:03:47.864Z,3.90
2023-03-07T20:06:18.697Z,3.90
2023-03-07T20:08:51.202Z,3.80
2023-03-07T20:11:21.008Z,3.90
2023-03-07T20:13:48.776Z,3.70
2023-03-07T20:16:17.985Z,3.60
2023-03-07T20:18:50.298Z,3.50
2023-03-07T20:21:17.962Z,3.50
2023-03-07T20:23:46.588Z,3.60
2023-03-07T20:26:34.764Z,3.50
2023-03-07T20:29:03.634Z,3.60
2023-03-07T20:31:31.131Z,3.70
2023-03-07T20:33:59.970Z,3.60
2023-03-07T20:36:36.851Z,3.50
2023-03-07T20:39:07.896Z,3.40
2023-03-07T20:41:34.954Z,3.40
2023-03-07T20:44:04.529Z,3.50
2023-03-07T20:46:32.481Z,3.50
2023-03-07T20:49:00.809Z,3.50
2023-03-07T20:51:37.135Z,3.40
2023-03-07T20:54:07.856Z,3.40
2023-03-07T20:56:36.667Z,3.40
2023-03-07T20:59:04.195Z,3.50
2023-03-07T21:01:32.930Z,3.40
2023-03-07T21:04:06.363Z,3.30
2023-03-07T21:06:37.084Z,3.30
2023-03-07T21:09:08.440Z,3.30
2023-03-07T21:11:36.641Z,3.20
2023-03-07T21:14:04.238Z,3.20
2023-03-07T21:16:31.842Z,3.10
2023-03-07T21:19:03.393Z,3.10
2023-03-07T21:21:30.989Z,3.20
2023-03-07T21:23:58.028Z,3.20
2023-03-07T21:26:27.492Z,3.10
2023-03-07T21:28:57.522Z,3.10
2023-03-07T21:31:26.997Z,3.00
2023-03-07T21:34:06.220Z,3.10
2023-03-07T21:36:33.976Z,3.10
2023-03-07T21:39:02.557Z,3.10
2023-03-07T21:41:29.450Z,3.20
2023-03-07T21:43:57.492Z,3.20
2023-03-07T21:46:25.375Z,3.10
2023-03-07T21:48:52.370Z,3.10
2023-03-07T21:51:19.434Z,3.00
2023-03-07T21:53:46.364Z,3.10
2023-03-07T21:56:17.155Z,3.20
2023-03-07T21:58:46.959Z,3.30
2023-03-07T22:01:23.212Z,3.20
2023-03-07T22:03:55.063Z,3.10
2023-03-07T22:06:22.648Z,3.10
2023-03-07T22:08:49.587Z,3.00
2023-03-07T22:11:16.402Z,3.10
2023-03-07T22:13:43.719Z,3.00
2023-03-07T22:16:16.525Z,2.90
2023-03-07T22:18:43.663Z,2.80
2023-03-07T22:21:14.121Z,2.80
2023-03-07T22:23:41.281Z,2.80
2023-03-07T22:26:09.816Z,2.80
2023-03-07T22:28:37.300Z,2.80
2023-03-07T22:31:09.852Z,2.80
2023-03-07T22:33:36.647Z,2.70
2023-03-07T22:36:05.820Z,2.70
2023-03-07T22:38:32.910Z,2.70
2023-03-07T22:41:05.593Z,2.70
2023-03-07T22:43:33.407Z,2.70
2023-03-07T22:46:00.543Z,2.80
2023-03-07T22:48:28.127Z,2.70
2023-03-07T22:50:55.260Z,2.70
2023-03-07T22:53:22.094Z,2.60
2023-03-07T22:55:48.853Z,2.60
2023-03-07T22:58:15.970Z,2.60
2023-03-07T23:00:44.409Z,2.60
2023-03-07T23:03:11.798Z,2.60
2023-03-07T23:05:38.659Z,2.50
2023-03-07T23:08:05.612Z,2.50
2023-03-07T23:10:32.858Z,2.60
2023-03-07T23:12:59.763Z,2.60
2023-03-07T23:15:26.864Z,2.60
2023-03-07T23:17:54.606Z,2.60
2023-03-07T23:20:25.384Z,2.60
2023-03-07T23:22:53.017Z,2.70
2023-03-07T23:25:20.063Z,2.70
2023-03-07T23:27:46.882Z,2.70
2023-03-07T23:30:14.118Z,2.70
2023-03-07T23:32:40.970Z,2.70
2023-03-07T23:35:08.113Z,2.70
2023-03-07T23:37:35.307Z,2.70
2023-03-07T23:40:02.594Z,2.70
2023-03-07T23:42:29.378Z,2.80
2023-03-07T23:44:56.262Z,2.80
2023-03-07T23:47:23.030Z,2.80
2023-03-07T23:49:49.852Z,2.80
2023-03-07T23:52:16.695Z,2.80
2023-03-07T23:54:46.694Z,2.80
2023-03-07T23:57:13.572Z,2.80
2023-03-07T23:59:40.320Z,2.80
